Ash, Missouri
Current Conditions -  °F | °C
As of 8:15 AM on Wednesday 28 Jan 2015 (Local Time) from KHAE Reporting Station
Clear Clear  
Wind Chill: 23°   Ceiling: Unl
Heat Index: 32°   Visibility: 10mi
Dew Point: 27°   Wind: 12mph
Humidity: 80%   Direction: 140°SE
Pressure: 30.13"   Gusts: 18mph
Location:  39.4792°N, 92.217°W
Report Text: KHAE 281415Z AUTO 14010G16KT 10SM CLR 00/M03 A3013 RMK AO2
Loading
Personal Weather Stations






























Interactive Weather Map New forecast layout! Learn more

10-Day Weather Forecast

Advertisements
Track Severe Weather on mobile